sensor_id;sensor_type;location;lat;lon;timestamp;P1;durP1;ratioP1;P2;durP2;ratioP2
65156;SDS011;52745;49.794;18.258;2022-07-23T00:00:20;17.00;;;10.00;;
65156;SDS011;52745;49.794;18.258;2022-07-23T00:03:02;15.07;;;10.38;;
65156;SDS011;52745;49.794;18.258;2022-07-23T00:05:29;13.15;;;9.90;;
65156;SDS011;52745;49.794;18.258;2022-07-23T00:07:55;16.83;;;9.68;;
65156;SDS011;52745;49.794;18.258;2022-07-23T00:10:21;15.00;;;10.20;;
65156;SDS011;52745;49.794;18.258;2022-07-23T00:12:48;16.00;;;10.70;;
65156;SDS011;52745;49.794;18.258;2022-07-23T00:15:15;13.80;;;10.32;;
65156;SDS011;52745;49.794;18.258;2022-07-23T00:17:41;16.88;;;10.88;;
65156;SDS011;52745;49.794;18.258;2022-07-23T00:20:08;13.23;;;9.80;;
65156;SDS011;52745;49.794;18.258;2022-07-23T00:22:34;12.38;;;9.82;;
65156;SDS011;52745;49.794;18.258;2022-07-23T00:25:01;18.23;;;10.20;;
65156;SDS011;52745;49.794;18.258;2022-07-23T00:27:29;13.55;;;9.32;;
65156;SDS011;52745;49.794;18.258;2022-07-23T00:29:56;12.77;;;9.05;;
65156;SDS011;52745;49.794;18.258;2022-07-23T00:32:23;16.80;;;9.80;;
65156;SDS011;52745;49.794;18.258;2022-07-23T00:34:49;13.30;;;9.60;;
65156;SDS011;52745;49.794;18.258;2022-07-23T00:37:15;15.00;;;9.60;;
65156;SDS011;52745;49.794;18.258;2022-07-23T00:39:42;11.90;;;9.38;;
65156;SDS011;52745;49.794;18.258;2022-07-23T00:42:08;11.68;;;9.13;;
65156;SDS011;52745;49.794;18.258;2022-07-23T00:44:35;12.85;;;9.75;;
65156;SDS011;52745;49.794;18.258;2022-07-23T00:47:01;14.52;;;9.85;;
65156;SDS011;52745;49.794;18.258;2022-07-23T00:49:29;11.80;;;9.27;;
65156;SDS011;52745;49.794;18.258;2022-07-23T00:51:56;12.18;;;9.40;;
65156;SDS011;52745;49.794;18.258;2022-07-23T00:54:24;14.27;;;9.73;;
65156;SDS011;52745;49.794;18.258;2022-07-23T00:56:53;12.60;;;9.13;;
65156;SDS011;52745;49.794;18.258;2022-07-23T00:59:20;13.68;;;9.35;;
65156;SDS011;52745;49.794;18.258;2022-07-23T01:01:47;13.50;;;10.27;;
65156;SDS011;52745;49.794;18.258;2022-07-23T01:04:15;12.48;;;9.60;;
65156;SDS011;52745;49.794;18.258;2022-07-23T01:06:42;13.50;;;10.18;;
65156;SDS011;52745;49.794;18.258;2022-07-23T01:09:10;13.77;;;9.65;;
65156;SDS011;52745;49.794;18.258;2022-07-23T01:11:37;11.70;;;9.70;;
65156;SDS011;52745;49.794;18.258;2022-07-23T01:14:07;13.65;;;9.57;;
65156;SDS011;52745;49.794;18.258;2022-07-23T01:16:45;14.63;;;10.30;;
65156;SDS011;52745;49.794;18.258;2022-07-23T01:19:13;15.88;;;10.27;;
65156;SDS011;52745;49.794;18.258;2022-07-23T01:21:43;13.68;;;9.95;;
65156;SDS011;52745;49.794;18.258;2022-07-23T01:24:15;15.98;;;10.20;;
65156;SDS011;52745;49.794;18.258;2022-07-23T01:27:03;12.50;;;9.70;;
65156;SDS011;52745;49.794;18.258;2022-07-23T01:29:33;14.18;;;10.23;;
65156;SDS011;52745;49.794;18.258;2022-07-23T01:32:03;12.27;;;9.32;;
65156;SDS011;52745;49.794;18.258;2022-07-23T01:34:30;12.50;;;9.43;;
65156;SDS011;52745;49.794;18.258;2022-07-23T01:36:56;17.10;;;10.27;;
65156;SDS011;52745;49.794;18.258;2022-07-23T01:39:23;13.13;;;10.10;;
65156;SDS011;52745;49.794;18.258;2022-07-23T01:41:51;14.52;;;9.98;;
65156;SDS011;52745;49.794;18.258;2022-07-23T01:44:19;17.10;;;10.32;;
65156;SDS011;52745;49.794;18.258;2022-07-23T01:46:46;14.05;;;10.10;;
65156;SDS011;52745;49.794;18.258;2022-07-23T01:49:13;14.15;;;9.93;;
65156;SDS011;52745;49.794;18.258;2022-07-23T01:51:55;16.75;;;10.02;;
65156;SDS011;52745;49.794;18.258;2022-07-23T01:54:33;11.35;;;9.40;;
65156;SDS011;52745;49.794;18.258;2022-07-23T01:57:01;15.15;;;10.88;;
65156;SDS011;52745;49.794;18.258;2022-07-23T01:59:29;15.88;;;10.38;;
65156;SDS011;52745;49.794;18.258;2022-07-23T02:01:56;15.80;;;10.63;;
65156;SDS011;52745;49.794;18.258;2022-07-23T02:04:23;13.65;;;9.98;;
65156;SDS011;52745;49.794;18.258;2022-07-23T02:06:51;13.25;;;10.45;;
65156;SDS011;52745;49.794;18.258;2022-07-23T02:09:18;12.40;;;10.20;;
65156;SDS011;52745;49.794;18.258;2022-07-23T02:11:47;11.88;;;9.48;;
65156;SDS011;52745;49.794;18.258;2022-07-23T02:14:13;11.73;;;10.23;;
65156;SDS011;52745;49.794;18.258;2022-07-23T02:16:40;13.93;;;10.38;;
65156;SDS011;52745;49.794;18.258;2022-07-23T02:19:06;13.23;;;10.27;;
65156;SDS011;52745;49.794;18.258;2022-07-23T02:21:33;18.33;;;10.18;;
65156;SDS011;52745;49.794;18.258;2022-07-23T02:23:59;14.95;;;9.93;;
65156;SDS011;52745;49.794;18.258;2022-07-23T02:26:26;19.50;;;12.50;;
65156;SDS011;52745;49.794;18.258;2022-07-23T02:28:54;15.93;;;10.70;;
65156;SDS011;52745;49.794;18.258;2022-07-23T02:31:20;12.85;;;10.32;;
65156;SDS011;52745;49.794;18.258;2022-07-23T02:33:47;17.08;;;13.07;;
65156;SDS011;52745;49.794;18.258;2022-07-23T02:36:16;19.15;;;11.60;;
65156;SDS011;52745;49.794;18.258;2022-07-23T02:38:42;16.27;;;12.40;;
65156;SDS011;52745;49.794;18.258;2022-07-23T02:41:09;14.48;;;11.30;;
65156;SDS011;52745;49.794;18.258;2022-07-23T02:43:38;16.05;;;11.48;;
65156;SDS011;52745;49.794;18.258;2022-07-23T02:46:04;12.38;;;9.30;;
65156;SDS011;52745;49.794;18.258;2022-07-23T02:48:31;12.43;;;10.20;;
65156;SDS011;52745;49.794;18.258;2022-07-23T02:50:59;18.08;;;10.10;;
65156;SDS011;52745;49.794;18.258;2022-07-23T02:53:32;14.77;;;10.13;;
65156;SDS011;52745;49.794;18.258;2022-07-23T02:55:58;16.20;;;9.65;;
65156;SDS011;52745;49.794;18.258;2022-07-23T02:58:25;14.20;;;9.77;;
65156;SDS011;52745;49.794;18.258;2022-07-23T03:00:52;12.57;;;9.65;;
65156;SDS011;52745;49.794;18.258;2022-07-23T03:03:19;16.55;;;10.25;;
65156;SDS011;52745;49.794;18.258;2022-07-23T03:05:46;12.07;;;9.75;;
65156;SDS011;52745;49.794;18.258;2022-07-23T03:08:13;14.38;;;10.65;;
65156;SDS011;52745;49.794;18.258;2022-07-23T03:10:42;13.05;;;10.25;;
65156;SDS011;52745;49.794;18.258;2022-07-23T03:13:08;14.55;;;10.32;;
65156;SDS011;52745;49.794;18.258;2022-07-23T03:15:35;13.82;;;10.68;;
65156;SDS011;52745;49.794;18.258;2022-07-23T03:18:02;14.43;;;10.77;;
65156;SDS011;52745;49.794;18.258;2022-07-23T03:20:29;13.77;;;11.38;;
65156;SDS011;52745;49.794;18.258;2022-07-23T03:22:56;15.52;;;11.48;;
65156;SDS011;52745;49.794;18.258;2022-07-23T03:25:22;19.90;;;11.68;;
65156;SDS011;52745;49.794;18.258;2022-07-23T03:27:49;15.40;;;11.77;;
65156;SDS011;52745;49.794;18.258;2022-07-23T03:30:15;16.40;;;11.15;;
65156;SDS011;52745;49.794;18.258;2022-07-23T03:32:42;13.35;;;10.90;;
65156;SDS011;52745;49.794;18.258;2022-07-23T03:35:08;15.38;;;10.77;;
65156;SDS011;52745;49.794;18.258;2022-07-23T03:37:40;14.15;;;11.30;;
65156;SDS011;52745;49.794;18.258;2022-07-23T03:40:07;14.68;;;11.32;;
65156;SDS011;52745;49.794;18.258;2022-07-23T03:42:34;12.93;;;9.93;;
65156;SDS011;52745;49.794;18.258;2022-07-23T03:45:03;15.15;;;10.98;;
65156;SDS011;52745;49.794;18.258;2022-07-23T03:47:31;16.00;;;10.77;;
65156;SDS011;52745;49.794;18.258;2022-07-23T03:49:58;13.23;;;9.82;;
65156;SDS011;52745;49.794;18.258;2022-07-23T03:52:25;13.98;;;11.00;;
65156;SDS011;52745;49.794;18.258;2022-07-23T03:54:51;14.88;;;10.55;;
65156;SDS011;52745;49.794;18.258;2022-07-23T03:57:18;14.60;;;10.65;;
65156;SDS011;52745;49.794;18.258;2022-07-23T03:59:44;16.60;;;10.68;;
65156;SDS011;52745;49.794;18.258;2022-07-23T04:02:12;15.00;;;10.90;;
65156;SDS011;52745;49.794;18.258;2022-07-23T04:04:38;13.98;;;10.40;;
65156;SDS011;52745;49.794;18.258;2022-07-23T04:07:05;15.02;;;10.23;;
65156;SDS011;52745;49.794;18.258;2022-07-23T04:09:34;17.10;;;10.23;;
65156;SDS011;52745;49.794;18.258;2022-07-23T04:12:01;13.82;;;9.75;;
65156;SDS011;52745;49.794;18.258;2022-07-23T04:14:28;16.67;;;10.88;;
65156;SDS011;52745;49.794;18.258;2022-07-23T04:16:54;14.07;;;10.68;;
65156;SDS011;52745;49.794;18.258;2022-07-23T04:19:21;13.23;;;9.95;;
65156;SDS011;52745;49.794;18.258;2022-07-23T04:21:56;16.67;;;10.68;;
65156;SDS011;52745;49.794;18.258;2022-07-23T04:24:23;16.48;;;10.43;;
65156;SDS011;52745;49.794;18.258;2022-07-23T04:26:50;13.30;;;10.50;;
65156;SDS011;52745;49.794;18.258;2022-07-23T04:29:17;14.23;;;10.25;;
65156;SDS011;52745;49.794;18.258;2022-07-23T04:31:43;15.43;;;10.73;;
65156;SDS011;52745;49.794;18.258;2022-07-23T04:34:10;14.45;;;10.15;;
65156;SDS011;52745;49.794;18.258;2022-07-23T04:36:36;13.60;;;10.20;;
65156;SDS011;52745;49.794;18.258;2022-07-23T04:39:03;13.30;;;10.75;;
65156;SDS011;52745;49.794;18.258;2022-07-23T04:41:30;14.60;;;10.95;;
65156;SDS011;52745;49.794;18.258;2022-07-23T04:43:57;15.48;;;11.05;;
65156;SDS011;52745;49.794;18.258;2022-07-23T04:46:24;14.00;;;11.00;;
65156;SDS011;52745;49.794;18.258;2022-07-23T04:48:51;15.27;;;10.93;;
65156;SDS011;52745;49.794;18.258;2022-07-23T04:51:18;14.13;;;10.50;;
65156;SDS011;52745;49.794;18.258;2022-07-23T04:53:45;14.60;;;10.43;;
65156;SDS011;52745;49.794;18.258;2022-07-23T04:56:12;13.73;;;10.43;;
65156;SDS011;52745;49.794;18.258;2022-07-23T04:58:39;15.10;;;10.63;;
65156;SDS011;52745;49.794;18.258;2022-07-23T05:01:05;13.55;;;11.00;;
65156;SDS011;52745;49.794;18.258;2022-07-23T05:03:35;20.02;;;16.45;;
65156;SDS011;52745;49.794;18.258;2022-07-23T05:06:02;40.25;;;30.48;;
65156;SDS011;52745;49.794;18.258;2022-07-23T05:08:29;26.38;;;21.13;;
65156;SDS011;52745;49.794;18.258;2022-07-23T05:10:58;15.63;;;12.23;;
65156;SDS011;52745;49.794;18.258;2022-07-23T05:13:26;46.05;;;31.85;;
65156;SDS011;52745;49.794;18.258;2022-07-23T05:15:54;16.52;;;10.82;;
65156;SDS011;52745;49.794;18.258;2022-07-23T05:18:21;21.48;;;10.45;;
65156;SDS011;52745;49.794;18.258;2022-07-23T05:20:48;18.45;;;11.02;;
65156;SDS011;52745;49.794;18.258;2022-07-23T05:23:18;15.02;;;10.95;;
65156;SDS011;52745;49.794;18.258;2022-07-23T05:25:45;23.70;;;10.50;;
65156;SDS011;52745;49.794;18.258;2022-07-23T05:28:12;27.85;;;11.10;;
65156;SDS011;52745;49.794;18.258;2022-07-23T05:30:39;17.63;;;10.38;;
65156;SDS011;52745;49.794;18.258;2022-07-23T05:33:09;17.55;;;10.60;;
65156;SDS011;52745;49.794;18.258;2022-07-23T05:35:36;19.52;;;10.82;;
65156;SDS011;52745;49.794;18.258;2022-07-23T05:38:23;17.08;;;9.95;;
65156;SDS011;52745;49.794;18.258;2022-07-23T05:40:51;14.52;;;9.27;;
65156;SDS011;52745;49.794;18.258;2022-07-23T05:43:18;14.88;;;9.60;;
65156;SDS011;52745;49.794;18.258;2022-07-23T05:45:45;11.80;;;8.88;;
65156;SDS011;52745;49.794;18.258;2022-07-23T05:48:12;10.88;;;8.48;;
65156;SDS011;52745;49.794;18.258;2022-07-23T05:50:49;15.98;;;9.07;;
65156;SDS011;52745;49.794;18.258;2022-07-23T05:53:27;18.13;;;9.07;;
65156;SDS011;52745;49.794;18.258;2022-07-23T05:56:09;11.90;;;8.55;;
65156;SDS011;52745;49.794;18.258;2022-07-23T05:58:36;16.98;;;9.43;;
65156;SDS011;52745;49.794;18.258;2022-07-23T06:01:03;19.95;;;8.98;;
65156;SDS011;52745;49.794;18.258;2022-07-23T06:03:37;17.73;;;9.00;;
65156;SDS011;52745;49.794;18.258;2022-07-23T06:06:06;19.27;;;9.63;;
65156;SDS011;52745;49.794;18.258;2022-07-23T06:08:33;15.57;;;9.65;;
65156;SDS011;52745;49.794;18.258;2022-07-23T06:11:00;13.85;;;9.73;;
65156;SDS011;52745;49.794;18.258;2022-07-23T06:13:28;18.75;;;9.48;;
65156;SDS011;52745;49.794;18.258;2022-07-23T06:15:54;23.00;;;11.13;;
65156;SDS011;52745;49.794;18.258;2022-07-23T06:18:21;16.15;;;10.85;;
65156;SDS011;52745;49.794;18.258;2022-07-23T06:20:47;16.35;;;10.68;;
65156;SDS011;52745;49.794;18.258;2022-07-23T06:23:14;17.52;;;11.00;;
65156;SDS011;52745;49.794;18.258;2022-07-23T06:25:40;16.08;;;11.18;;
65156;SDS011;52745;49.794;18.258;2022-07-23T06:28:07;15.88;;;10.82;;
65156;SDS011;52745;49.794;18.258;2022-07-23T06:30:33;21.30;;;11.75;;
65156;SDS011;52745;49.794;18.258;2022-07-23T06:33:00;18.85;;;12.32;;
65156;SDS011;52745;49.794;18.258;2022-07-23T06:35:26;20.45;;;11.65;;
65156;SDS011;52745;49.794;18.258;2022-07-23T06:37:53;16.88;;;12.27;;
65156;SDS011;52745;49.794;18.258;2022-07-23T06:40:19;18.65;;;11.38;;
65156;SDS011;52745;49.794;18.258;2022-07-23T06:42:46;21.90;;;12.40;;
65156;SDS011;52745;49.794;18.258;2022-07-23T06:45:17;22.88;;;12.27;;
65156;SDS011;52745;49.794;18.258;2022-07-23T06:47:44;20.48;;;11.98;;
65156;SDS011;52745;49.794;18.258;2022-07-23T06:50:10;22.77;;;12.05;;
65156;SDS011;52745;49.794;18.258;2022-07-23T06:52:37;20.85;;;12.50;;
65156;SDS011;52745;49.794;18.258;2022-07-23T06:55:05;25.75;;;12.07;;
65156;SDS011;52745;49.794;18.258;2022-07-23T06:57:32;20.48;;;11.88;;
65156;SDS011;52745;49.794;18.258;2022-07-23T06:59:58;25.00;;;11.43;;
65156;SDS011;52745;49.794;18.258;2022-07-23T07:02:25;20.17;;;12.00;;
65156;SDS011;52745;49.794;18.258;2022-07-23T07:04:52;20.88;;;11.82;;
65156;SDS011;52745;49.794;18.258;2022-07-23T07:07:19;23.33;;;12.07;;
65156;SDS011;52745;49.794;18.258;2022-07-23T07:09:45;21.88;;;11.95;;
65156;SDS011;52745;49.794;18.258;2022-07-23T07:12:12;19.83;;;11.40;;
65156;SDS011;52745;49.794;18.258;2022-07-23T07:14:38;15.95;;;10.15;;
65156;SDS011;52745;49.794;18.258;2022-07-23T07:17:05;22.00;;;13.63;;
65156;SDS011;52745;49.794;18.258;2022-07-23T07:19:31;21.02;;;13.32;;
65156;SDS011;52745;49.794;18.258;2022-07-23T07:21:58;24.42;;;13.65;;
65156;SDS011;52745;49.794;18.258;2022-07-23T07:24:24;24.58;;;13.23;;
65156;SDS011;52745;49.794;18.258;2022-07-23T07:26:51;21.30;;;12.65;;
65156;SDS011;52745;49.794;18.258;2022-07-23T07:29:17;25.27;;;12.30;;
65156;SDS011;52745;49.794;18.258;2022-07-23T07:31:43;24.65;;;13.63;;
65156;SDS011;52745;49.794;18.258;2022-07-23T07:34:10;21.85;;;13.60;;
65156;SDS011;52745;49.794;18.258;2022-07-23T07:36:37;28.13;;;13.65;;
65156;SDS011;52745;49.794;18.258;2022-07-23T07:39:04;23.77;;;14.07;;
65156;SDS011;52745;49.794;18.258;2022-07-23T07:41:31;24.55;;;13.18;;
65156;SDS011;52745;49.794;18.258;2022-07-23T07:43:57;21.55;;;12.50;;
65156;SDS011;52745;49.794;18.258;2022-07-23T07:46:24;22.02;;;11.60;;
65156;SDS011;52745;49.794;18.258;2022-07-23T07:48:53;20.83;;;11.95;;
65156;SDS011;52745;49.794;18.258;2022-07-23T07:51:20;25.00;;;13.43;;
65156;SDS011;52745;49.794;18.258;2022-07-23T07:53:46;25.10;;;13.40;;
65156;SDS011;52745;49.794;18.258;2022-07-23T07:56:13;25.90;;;14.57;;
65156;SDS011;52745;49.794;18.258;2022-07-23T07:58:39;30.02;;;14.95;;
65156;SDS011;52745;49.794;18.258;2022-07-23T08:01:06;34.60;;;13.98;;
65156;SDS011;52745;49.794;18.258;2022-07-23T08:03:33;34.22;;;14.38;;
65156;SDS011;52745;49.794;18.258;2022-07-23T08:05:59;42.40;;;16.00;;
65156;SDS011;52745;49.794;18.258;2022-07-23T08:08:26;34.55;;;15.25;;
65156;SDS011;52745;49.794;18.258;2022-07-23T08:10:53;45.97;;;16.02;;
65156;SDS011;52745;49.794;18.258;2022-07-23T08:13:19;44.10;;;15.18;;
65156;SDS011;52745;49.794;18.258;2022-07-23T08:15:46;33.20;;;15.85;;
65156;SDS011;52745;49.794;18.258;2022-07-23T08:18:12;34.75;;;14.90;;
65156;SDS011;52745;49.794;18.258;2022-07-23T08:20:39;31.70;;;14.60;;
65156;SDS011;52745;49.794;18.258;2022-07-23T08:23:06;37.13;;;14.35;;
65156;SDS011;52745;49.794;18.258;2022-07-23T08:25:35;34.70;;;15.45;;
65156;SDS011;52745;49.794;18.258;2022-07-23T08:28:03;29.73;;;14.05;;
65156;SDS011;52745;49.794;18.258;2022-07-23T08:30:32;36.88;;;15.18;;
65156;SDS011;52745;49.794;18.258;2022-07-23T08:35:55;38.05;;;14.68;;
65156;SDS011;52745;49.794;18.258;2022-07-23T08:38:22;34.72;;;14.38;;
65156;SDS011;52745;49.794;18.258;2022-07-23T08:40:50;38.22;;;14.23;;
65156;SDS011;52745;49.794;18.258;2022-07-23T08:43:22;39.35;;;14.40;;
65156;SDS011;52745;49.794;18.258;2022-07-23T08:45:51;31.80;;;14.98;;
65156;SDS011;52745;49.794;18.258;2022-07-23T08:48:23;28.90;;;14.90;;
65156;SDS011;52745;49.794;18.258;2022-07-23T08:50:53;32.38;;;13.93;;
65156;SDS011;52745;49.794;18.258;2022-07-23T08:53:22;35.88;;;13.30;;
65156;SDS011;52745;49.794;18.258;2022-07-23T08:55:50;20.23;;;12.07;;
65156;SDS011;52745;49.794;18.258;2022-07-23T08:58:19;26.80;;;12.18;;
65156;SDS011;52745;49.794;18.258;2022-07-23T09:00:47;30.30;;;12.10;;
65156;SDS011;52745;49.794;18.258;2022-07-23T09:03:19;27.88;;;11.93;;
65156;SDS011;52745;49.794;18.258;2022-07-23T09:05:56;29.60;;;12.90;;
65156;SDS011;52745;49.794;18.258;2022-07-23T09:08:33;30.15;;;13.18;;
65156;SDS011;52745;49.794;18.258;2022-07-23T09:11:05;28.95;;;13.60;;
65156;SDS011;52745;49.794;18.258;2022-07-23T09:16:13;24.25;;;12.50;;
65156;SDS011;52745;49.794;18.258;2022-07-23T09:18:53;28.38;;;12.98;;
65156;SDS011;52745;49.794;18.258;2022-07-23T09:21:25;20.13;;;11.05;;
65156;SDS011;52745;49.794;18.258;2022-07-23T09:23:59;30.60;;;12.73;;
65156;SDS011;52745;49.794;18.258;2022-07-23T09:31:57;30.50;;;12.48;;
65156;SDS011;52745;49.794;18.258;2022-07-23T09:34:26;20.20;;;11.15;;
65156;SDS011;52745;49.794;18.258;2022-07-23T09:36:55;22.08;;;10.85;;
65156;SDS011;52745;49.794;18.258;2022-07-23T09:39:25;22.75;;;11.60;;
65156;SDS011;52745;49.794;18.258;2022-07-23T09:41:56;16.90;;;8.65;;
65156;SDS011;52745;49.794;18.258;2022-07-23T09:44:24;16.52;;;9.60;;
65156;SDS011;52745;49.794;18.258;2022-07-23T09:46:52;12.98;;;7.50;;
65156;SDS011;52745;49.794;18.258;2022-07-23T09:49:24;15.90;;;8.35;;
65156;SDS011;52745;49.794;18.258;2022-07-23T09:51:52;15.20;;;7.45;;
65156;SDS011;52745;49.794;18.258;2022-07-23T09:54:37;15.77;;;7.57;;
65156;SDS011;52745;49.794;18.258;2022-07-23T09:57:11;12.43;;;7.10;;
65156;SDS011;52745;49.794;18.258;2022-07-23T09:59:42;13.90;;;7.90;;
65156;SDS011;52745;49.794;18.258;2022-07-23T10:02:11;15.02;;;7.10;;
65156;SDS011;52745;49.794;18.258;2022-07-23T10:04:58;14.38;;;6.60;;
65156;SDS011;52745;49.794;18.258;2022-07-23T10:07:47;9.02;;;6.47;;
65156;SDS011;52745;49.794;18.258;2022-07-23T10:10:33;10.70;;;6.80;;
65156;SDS011;52745;49.794;18.258;2022-07-23T10:13:35;8.95;;;5.95;;
65156;SDS011;52745;49.794;18.258;2022-07-23T10:16:20;14.95;;;6.00;;
65156;SDS011;52745;49.794;18.258;2022-07-23T10:18:48;10.15;;;6.07;;
65156;SDS011;52745;49.794;18.258;2022-07-23T10:21:21;11.45;;;7.22;;
65156;SDS011;52745;49.794;18.258;2022-07-23T10:24:12;11.35;;;6.15;;
65156;SDS011;52745;49.794;18.258;2022-07-23T10:26:45;11.57;;;6.55;;
65156;SDS011;52745;49.794;18.258;2022-07-23T10:37:42;9.27;;;6.50;;
65156;SDS011;52745;49.794;18.258;2022-07-23T10:40:14;13.73;;;6.47;;
65156;SDS011;52745;49.794;18.258;2022-07-23T10:42:46;9.30;;;5.53;;
65156;SDS011;52745;49.794;18.258;2022-07-23T10:45:33;8.52;;;5.47;;
65156;SDS011;52745;49.794;18.258;2022-07-23T10:48:13;10.32;;;5.18;;
65156;SDS011;52745;49.794;18.258;2022-07-23T10:51:10;13.70;;;5.07;;
65156;SDS011;52745;49.794;18.258;2022-07-23T10:59:16;8.93;;;4.93;;
65156;SDS011;52745;49.794;18.258;2022-07-23T11:01:42;9.25;;;5.07;;
65156;SDS011;52745;49.794;18.258;2022-07-23T11:04:09;8.65;;;4.97;;
65156;SDS011;52745;49.794;18.258;2022-07-23T11:17:58;5.85;;;5.00;;
65156;SDS011;52745;49.794;18.258;2022-07-23T11:20:26;7.10;;;4.90;;
65156;SDS011;52745;49.794;18.258;2022-07-23T11:22:56;11.63;;;5.10;;
65156;SDS011;52745;49.794;18.258;2022-07-23T11:27:51;8.50;;;5.20;;
65156;SDS011;52745;49.794;18.258;2022-07-23T11:30:40;7.28;;;5.45;;
65156;SDS011;52745;49.794;18.258;2022-07-23T11:35:34;7.00;;;5.20;;
65156;SDS011;52745;49.794;18.258;2022-07-23T11:38:03;6.50;;;4.90;;
65156;SDS011;52745;49.794;18.258;2022-07-23T11:40:33;11.65;;;4.90;;
65156;SDS011;52745;49.794;18.258;2022-07-23T11:43:03;8.20;;;6.60;;
65156;SDS011;52745;49.794;18.258;2022-07-23T11:47:57;7.03;;;5.30;;
65156;SDS011;52745;49.794;18.258;2022-07-23T11:50:24;5.80;;;5.20;;
65156;SDS011;52745;49.794;18.258;2022-07-23T11:52:52;10.18;;;5.80;;
65156;SDS011;52745;49.794;18.258;2022-07-23T11:55:20;5.70;;;5.07;;
65156;SDS011;52745;49.794;18.258;2022-07-23T11:57:47;7.43;;;5.97;;
65156;SDS011;52745;49.794;18.258;2022-07-23T12:02:44;8.68;;;5.95;;
65156;SDS011;52745;49.794;18.258;2022-07-23T12:07:44;8.40;;;5.70;;
65156;SDS011;52745;49.794;18.258;2022-07-23T12:10:19;9.68;;;6.10;;
65156;SDS011;52745;49.794;18.258;2022-07-23T12:12:48;6.68;;;5.28;;
65156;SDS011;52745;49.794;18.258;2022-07-23T12:15:17;11.25;;;5.68;;
65156;SDS011;52745;49.794;18.258;2022-07-23T12:17:46;5.88;;;5.18;;
65156;SDS011;52745;49.794;18.258;2022-07-23T12:20:15;8.07;;;5.60;;
65156;SDS011;52745;49.794;18.258;2022-07-23T12:22:44;9.35;;;5.40;;
65156;SDS011;52745;49.794;18.258;2022-07-23T12:25:15;8.10;;;5.40;;
65156;SDS011;52745;49.794;18.258;2022-07-23T12:27:46;10.20;;;5.28;;
65156;SDS011;52745;49.794;18.258;2022-07-23T12:30:28;8.55;;;5.30;;
65156;SDS011;52745;49.794;18.258;2022-07-23T12:32:57;6.78;;;5.22;;
65156;SDS011;52745;49.794;18.258;2022-07-23T12:35:29;9.45;;;5.30;;
65156;SDS011;52745;49.794;18.258;2022-07-23T12:38:02;5.47;;;4.85;;
65156;SDS011;52745;49.794;18.258;2022-07-23T12:46:33;8.05;;;5.68;;
65156;SDS011;52745;49.794;18.258;2022-07-23T12:51:16;8.43;;;5.43;;
65156;SDS011;52745;49.794;18.258;2022-07-23T12:59:16;9.00;;;5.30;;
65156;SDS011;52745;49.794;18.258;2022-07-23T13:06:34;6.50;;;5.20;;
65156;SDS011;52745;49.794;18.258;2022-07-23T13:09:05;6.75;;;5.22;;
65156;SDS011;52745;49.794;18.258;2022-07-23T13:11:33;7.22;;;5.47;;
65156;SDS011;52745;49.794;18.258;2022-07-23T13:14:00;8.15;;;5.40;;
65156;SDS011;52745;49.794;18.258;2022-07-23T13:16:28;11.60;;;5.15;;
65156;SDS011;52745;49.794;18.258;2022-07-23T13:18:56;6.65;;;5.32;;
65156;SDS011;52745;49.794;18.258;2022-07-23T13:21:22;8.25;;;5.25;;
65156;SDS011;52745;49.794;18.258;2022-07-23T13:23:49;5.70;;;5.05;;
65156;SDS011;52745;49.794;18.258;2022-07-23T13:26:16;7.57;;;5.40;;
65156;SDS011;52745;49.794;18.258;2022-07-23T13:28:43;9.85;;;5.47;;
65156;SDS011;52745;49.794;18.258;2022-07-23T13:31:09;5.20;;;4.70;;
65156;SDS011;52745;49.794;18.258;2022-07-23T13:33:36;10.35;;;5.10;;
65156;SDS011;52745;49.794;18.258;2022-07-23T13:36:03;7.13;;;5.78;;
65156;SDS011;52745;49.794;18.258;2022-07-23T13:38:30;10.15;;;6.22;;
65156;SDS011;52745;49.794;18.258;2022-07-23T13:40:56;9.43;;;6.10;;
65156;SDS011;52745;49.794;18.258;2022-07-23T13:43:23;9.38;;;6.13;;
65156;SDS011;52745;49.794;18.258;2022-07-23T13:45:51;12.32;;;6.63;;
65156;SDS011;52745;49.794;18.258;2022-07-23T13:48:19;9.60;;;5.82;;
65156;SDS011;52745;49.794;18.258;2022-07-23T13:50:46;10.07;;;5.80;;
65156;SDS011;52745;49.794;18.258;2022-07-23T13:53:15;9.75;;;5.72;;
65156;SDS011;52745;49.794;18.258;2022-07-23T13:55:43;10.18;;;5.55;;
65156;SDS011;52745;49.794;18.258;2022-07-23T13:58:11;11.27;;;6.50;;
65156;SDS011;52745;49.794;18.258;2022-07-23T14:00:39;7.45;;;6.32;;
65156;SDS011;52745;49.794;18.258;2022-07-23T14:03:08;9.55;;;8.15;;
65156;SDS011;52745;49.794;18.258;2022-07-23T14:05:34;11.60;;;9.50;;
65156;SDS011;52745;49.794;18.258;2022-07-23T14:08:02;11.43;;;5.97;;
65156;SDS011;52745;49.794;18.258;2022-07-23T14:10:29;8.48;;;7.00;;
65156;SDS011;52745;49.794;18.258;2022-07-23T14:12:56;14.35;;;6.28;;
65156;SDS011;52745;49.794;18.258;2022-07-23T14:15:24;23.30;;;6.80;;
65156;SDS011;52745;49.794;18.258;2022-07-23T14:17:53;23.08;;;6.10;;
65156;SDS011;52745;49.794;18.258;2022-07-23T14:20:19;20.63;;;7.10;;
65156;SDS011;52745;49.794;18.258;2022-07-23T14:22:46;15.23;;;6.47;;
65156;SDS011;52745;49.794;18.258;2022-07-23T14:25:12;18.70;;;6.13;;
65156;SDS011;52745;49.794;18.258;2022-07-23T14:27:39;11.95;;;5.97;;
65156;SDS011;52745;49.794;18.258;2022-07-23T14:30:06;8.20;;;5.20;;
65156;SDS011;52745;49.794;18.258;2022-07-23T14:32:34;14.77;;;6.38;;
65156;SDS011;52745;49.794;18.258;2022-07-23T14:35:01;13.98;;;5.70;;
65156;SDS011;52745;49.794;18.258;2022-07-23T14:37:28;11.90;;;7.22;;
65156;SDS011;52745;49.794;18.258;2022-07-23T14:39:54;21.70;;;6.47;;
65156;SDS011;52745;49.794;18.258;2022-07-23T14:42:21;13.50;;;6.25;;
65156;SDS011;52745;49.794;18.258;2022-07-23T14:44:47;11.80;;;6.15;;
65156;SDS011;52745;49.794;18.258;2022-07-23T14:47:14;14.65;;;7.15;;
65156;SDS011;52745;49.794;18.258;2022-07-23T14:49:41;13.23;;;6.72;;
65156;SDS011;52745;49.794;18.258;2022-07-23T14:52:08;10.63;;;5.82;;
65156;SDS011;52745;49.794;18.258;2022-07-23T14:54:37;16.05;;;7.10;;
65156;SDS011;52745;49.794;18.258;2022-07-23T14:57:03;10.63;;;6.47;;
65156;SDS011;52745;49.794;18.258;2022-07-23T14:59:30;12.38;;;6.47;;
65156;SDS011;52745;49.794;18.258;2022-07-23T15:01:57;12.80;;;6.35;;
65156;SDS011;52745;49.794;18.258;2022-07-23T15:04:24;15.30;;;10.60;;
65156;SDS011;52745;49.794;18.258;2022-07-23T15:07:00;11.15;;;6.35;;
65156;SDS011;52745;49.794;18.258;2022-07-23T15:09:28;10.95;;;6.30;;
65156;SDS011;52745;49.794;18.258;2022-07-23T15:11:54;11.98;;;6.60;;
65156;SDS011;52745;49.794;18.258;2022-07-23T15:14:21;9.00;;;6.40;;
65156;SDS011;52745;49.794;18.258;2022-07-23T15:16:50;10.75;;;6.40;;
65156;SDS011;52745;49.794;18.258;2022-07-23T15:19:16;9.43;;;6.57;;
65156;SDS011;52745;49.794;18.258;2022-07-23T15:21:43;12.45;;;6.38;;
65156;SDS011;52745;49.794;18.258;2022-07-23T15:24:09;8.15;;;6.20;;
65156;SDS011;52745;49.794;18.258;2022-07-23T15:26:36;12.82;;;6.68;;
65156;SDS011;52745;49.794;18.258;2022-07-23T15:29:03;9.07;;;6.47;;
65156;SDS011;52745;49.794;18.258;2022-07-23T15:31:32;9.35;;;6.63;;